sensor_id;sensor_type;location;lat;lon;timestamp;P1;durP1;ratioP1;P2;durP2;ratioP2
46931;SDS011;32670;51.464;11.964;2024-02-15T00:01:57;3.60;;;2.40;;
46931;SDS011;32670;51.464;11.964;2024-02-15T00:04:22;2.67;;;2.00;;
46931;SDS011;32670;51.464;11.964;2024-02-15T00:06:47;2.60;;;2.37;;
46931;SDS011;32670;51.464;11.964;2024-02-15T00:09:13;2.43;;;2.23;;
46931;SDS011;32670;51.464;11.964;2024-02-15T00:11:38;2.30;;;2.07;;
46931;SDS011;32670;51.464;11.964;2024-02-15T00:14:04;2.60;;;2.40;;
46931;SDS011;32670;51.464;11.964;2024-02-15T00:16:30;2.67;;;2.23;;
46931;SDS011;32670;51.464;11.964;2024-02-15T00:18:55;3.77;;;2.30;;
46931;SDS011;32670;51.464;11.964;2024-02-15T00:21:21;2.30;;;2.10;;
46931;SDS011;32670;51.464;11.964;2024-02-15T00:23:47;2.87;;;2.40;;
46931;SDS011;32670;51.464;11.964;2024-02-15T00:26:13;2.40;;;2.20;;
46931;SDS011;32670;51.464;11.964;2024-02-15T00:28:41;2.77;;;2.50;;
46931;SDS011;32670;51.464;11.964;2024-02-15T00:31:06;5.23;;;2.50;;
46931;SDS011;32670;51.464;11.964;2024-02-15T00:33:33;2.30;;;2.10;;
46931;SDS011;32670;51.464;11.964;2024-02-15T00:35:58;2.37;;;2.17;;
46931;SDS011;32670;51.464;11.964;2024-02-15T00:38:24;2.83;;;2.40;;
46931;SDS011;32670;51.464;11.964;2024-02-15T00:40:49;3.53;;;2.00;;
46931;SDS011;32670;51.464;11.964;2024-02-15T00:43:15;3.53;;;2.10;;
46931;SDS011;32670;51.464;11.964;2024-02-15T00:45:40;2.53;;;2.03;;
46931;SDS011;32670;51.464;11.964;2024-02-15T00:48:06;2.70;;;2.20;;
46931;SDS011;32670;51.464;11.964;2024-02-15T00:50:31;2.40;;;2.17;;
46931;SDS011;32670;51.464;11.964;2024-02-15T00:52:57;5.33;;;2.60;;
46931;SDS011;32670;51.464;11.964;2024-02-15T00:55:23;4.23;;;3.03;;
46931;SDS011;32670;51.464;11.964;2024-02-15T00:57:48;7.37;;;2.90;;
46931;SDS011;32670;51.464;11.964;2024-02-15T01:00:14;3.97;;;2.63;;
46931;SDS011;32670;51.464;11.964;2024-02-15T01:02:39;4.30;;;2.63;;
46931;SDS011;32670;51.464;11.964;2024-02-15T01:05:05;4.70;;;2.53;;
46931;SDS011;32670;51.464;11.964;2024-02-15T01:07:31;4.70;;;2.63;;
46931;SDS011;32670;51.464;11.964;2024-02-15T01:09:56;6.47;;;2.77;;
46931;SDS011;32670;51.464;11.964;2024-02-15T01:12:22;10.83;;;3.30;;
46931;SDS011;32670;51.464;11.964;2024-02-15T01:14:47;4.00;;;2.60;;
46931;SDS011;32670;51.464;11.964;2024-02-15T01:17:13;6.40;;;3.03;;
46931;SDS011;32670;51.464;11.964;2024-02-15T01:19:38;5.77;;;2.60;;
46931;SDS011;32670;51.464;11.964;2024-02-15T01:22:04;4.80;;;2.87;;
46931;SDS011;32670;51.464;11.964;2024-02-15T01:24:31;4.73;;;2.57;;
46931;SDS011;32670;51.464;11.964;2024-02-15T01:26:57;5.47;;;2.70;;
46931;SDS011;32670;51.464;11.964;2024-02-15T01:29:23;4.50;;;2.80;;
46931;SDS011;32670;51.464;11.964;2024-02-15T01:31:49;5.03;;;2.57;;
46931;SDS011;32670;51.464;11.964;2024-02-15T01:34:15;4.33;;;2.57;;
46931;SDS011;32670;51.464;11.964;2024-02-15T01:36:40;3.50;;;2.40;;
46931;SDS011;32670;51.464;11.964;2024-02-15T01:39:06;3.47;;;2.60;;
46931;SDS011;32670;51.464;11.964;2024-02-15T01:41:32;4.67;;;2.70;;
46931;SDS011;32670;51.464;11.964;2024-02-15T01:43:57;3.87;;;2.90;;
46931;SDS011;32670;51.464;11.964;2024-02-15T01:46:23;3.33;;;2.60;;
46931;SDS011;32670;51.464;11.964;2024-02-15T01:48:50;4.83;;;2.77;;
46931;SDS011;32670;51.464;11.964;2024-02-15T01:51:16;2.70;;;2.50;;
46931;SDS011;32670;51.464;11.964;2024-02-15T01:53:43;3.13;;;2.67;;
46931;SDS011;32670;51.464;11.964;2024-02-15T01:56:09;2.63;;;2.43;;
46931;SDS011;32670;51.464;11.964;2024-02-15T01:58:38;2.67;;;2.30;;
46931;SDS011;32670;51.464;11.964;2024-02-15T02:01:05;2.67;;;2.47;;
46931;SDS011;32670;51.464;11.964;2024-02-15T02:03:32;3.37;;;2.37;;
46931;SDS011;32670;51.464;11.964;2024-02-15T02:05:57;3.07;;;2.30;;
46931;SDS011;32670;51.464;11.964;2024-02-15T02:08:24;2.80;;;2.60;;
46931;SDS011;32670;51.464;11.964;2024-02-15T02:10:50;2.73;;;2.50;;
46931;SDS011;32670;51.464;11.964;2024-02-15T02:13:17;3.13;;;2.10;;
46931;SDS011;32670;51.464;11.964;2024-02-15T02:15:43;3.57;;;2.50;;
46931;SDS011;32670;51.464;11.964;2024-02-15T02:18:09;4.30;;;2.57;;
46931;SDS011;32670;51.464;11.964;2024-02-15T02:20:35;2.67;;;2.47;;
46931;SDS011;32670;51.464;11.964;2024-02-15T02:23:13;3.30;;;2.53;;
46931;SDS011;32670;51.464;11.964;2024-02-15T02:25:40;3.27;;;2.50;;
46931;SDS011;32670;51.464;11.964;2024-02-15T02:28:07;3.10;;;2.77;;
46931;SDS011;32670;51.464;11.964;2024-02-15T02:30:34;4.27;;;2.80;;
46931;SDS011;32670;51.464;11.964;2024-02-15T02:32:59;4.53;;;3.37;;
46931;SDS011;32670;51.464;11.964;2024-02-15T02:35:26;5.07;;;3.20;;
46931;SDS011;32670;51.464;11.964;2024-02-15T02:37:54;5.50;;;3.00;;
46931;SDS011;32670;51.464;11.964;2024-02-15T02:40:20;4.13;;;3.10;;
46931;SDS011;32670;51.464;11.964;2024-02-15T02:42:53;4.87;;;3.03;;
46931;SDS011;32670;51.464;11.964;2024-02-15T02:45:24;3.40;;;3.10;;
46931;SDS011;32670;51.464;11.964;2024-02-15T02:47:50;4.87;;;2.80;;
46931;SDS011;32670;51.464;11.964;2024-02-15T02:50:17;4.93;;;2.97;;
46931;SDS011;32670;51.464;11.964;2024-02-15T02:52:43;4.23;;;3.00;;
46931;SDS011;32670;51.464;11.964;2024-02-15T02:55:09;3.60;;;2.90;;
46931;SDS011;32670;51.464;11.964;2024-02-15T02:57:35;5.03;;;2.93;;
46931;SDS011;32670;51.464;11.964;2024-02-15T03:00:02;3.17;;;2.70;;
46931;SDS011;32670;51.464;11.964;2024-02-15T03:02:33;5.93;;;3.00;;
46931;SDS011;32670;51.464;11.964;2024-02-15T03:05:00;3.50;;;2.80;;
46931;SDS011;32670;51.464;11.964;2024-02-15T03:07:27;5.17;;;2.90;;
46931;SDS011;32670;51.464;11.964;2024-02-15T03:09:53;4.33;;;2.50;;
46931;SDS011;32670;51.464;11.964;2024-02-15T03:12:18;3.70;;;2.67;;
46931;SDS011;32670;51.464;11.964;2024-02-15T03:14:44;3.77;;;2.97;;
46931;SDS011;32670;51.464;11.964;2024-02-15T03:17:10;4.43;;;3.00;;
46931;SDS011;32670;51.464;11.964;2024-02-15T03:19:36;4.77;;;2.90;;
46931;SDS011;32670;51.464;11.964;2024-02-15T03:22:01;3.33;;;2.83;;
46931;SDS011;32670;51.464;11.964;2024-02-15T03:24:26;3.40;;;2.60;;
46931;SDS011;32670;51.464;11.964;2024-02-15T03:26:52;5.83;;;3.03;;
46931;SDS011;32670;51.464;11.964;2024-02-15T03:29:20;4.73;;;2.80;;
46931;SDS011;32670;51.464;11.964;2024-02-15T03:31:46;4.17;;;2.90;;
46931;SDS011;32670;51.464;11.964;2024-02-15T03:34:12;3.30;;;2.67;;
46931;SDS011;32670;51.464;11.964;2024-02-15T03:36:39;2.93;;;2.63;;
46931;SDS011;32670;51.464;11.964;2024-02-15T03:39:05;3.17;;;2.73;;
46931;SDS011;32670;51.464;11.964;2024-02-15T03:41:31;4.37;;;2.90;;
46931;SDS011;32670;51.464;11.964;2024-02-15T03:43:57;3.23;;;2.57;;
46931;SDS011;32670;51.464;11.964;2024-02-15T03:46:24;4.00;;;2.93;;
46931;SDS011;32670;51.464;11.964;2024-02-15T03:48:50;6.13;;;2.70;;
46931;SDS011;32670;51.464;11.964;2024-02-15T03:51:17;3.27;;;2.80;;
46931;SDS011;32670;51.464;11.964;2024-02-15T03:53:45;3.00;;;2.40;;
46931;SDS011;32670;51.464;11.964;2024-02-15T03:56:13;3.90;;;2.63;;
46931;SDS011;32670;51.464;11.964;2024-02-15T03:58:39;3.57;;;2.83;;
46931;SDS011;32670;51.464;11.964;2024-02-15T04:01:04;3.60;;;2.90;;
46931;SDS011;32670;51.464;11.964;2024-02-15T04:03:32;3.30;;;2.70;;
46931;SDS011;32670;51.464;11.964;2024-02-15T04:05:59;2.57;;;2.37;;
46931;SDS011;32670;51.464;11.964;2024-02-15T04:08:25;4.07;;;2.73;;
46931;SDS011;32670;51.464;11.964;2024-02-15T04:10:50;3.40;;;2.57;;
46931;SDS011;32670;51.464;11.964;2024-02-15T04:13:16;3.63;;;2.80;;
46931;SDS011;32670;51.464;11.964;2024-02-15T04:15:41;5.43;;;3.50;;
46931;SDS011;32670;51.464;11.964;2024-02-15T04:18:08;4.60;;;2.90;;
46931;SDS011;32670;51.464;11.964;2024-02-15T04:20:35;3.37;;;2.70;;
46931;SDS011;32670;51.464;11.964;2024-02-15T04:23:01;3.50;;;2.83;;
46931;SDS011;32670;51.464;11.964;2024-02-15T04:25:27;3.90;;;2.70;;
46931;SDS011;32670;51.464;11.964;2024-02-15T04:27:56;10.73;;;2.97;;
46931;SDS011;32670;51.464;11.964;2024-02-15T04:30:22;5.37;;;2.90;;
46931;SDS011;32670;51.464;11.964;2024-02-15T04:32:49;6.93;;;2.80;;
46931;SDS011;32670;51.464;11.964;2024-02-15T04:35:14;4.30;;;2.60;;
46931;SDS011;32670;51.464;11.964;2024-02-15T04:37:40;4.53;;;3.30;;
46931;SDS011;32670;51.464;11.964;2024-02-15T04:40:06;4.13;;;3.13;;
46931;SDS011;32670;51.464;11.964;2024-02-15T04:42:35;2.90;;;2.60;;
46931;SDS011;32670;51.464;11.964;2024-02-15T04:45:04;6.33;;;3.43;;
46931;SDS011;32670;51.464;11.964;2024-02-15T04:47:34;6.00;;;2.90;;
46931;SDS011;32670;51.464;11.964;2024-02-15T04:50:00;4.20;;;2.60;;
46931;SDS011;32670;51.464;11.964;2024-02-15T04:52:25;4.57;;;3.00;;
46931;SDS011;32670;51.464;11.964;2024-02-15T04:54:51;7.33;;;2.70;;
46931;SDS011;32670;51.464;11.964;2024-02-15T04:57:19;2.97;;;2.30;;
46931;SDS011;32670;51.464;11.964;2024-02-15T04:59:45;3.40;;;2.77;;
46931;SDS011;32670;51.464;11.964;2024-02-15T05:02:12;3.70;;;2.50;;
46931;SDS011;32670;51.464;11.964;2024-02-15T05:04:38;6.60;;;2.77;;
46931;SDS011;32670;51.464;11.964;2024-02-15T05:07:07;5.33;;;2.73;;
46931;SDS011;32670;51.464;11.964;2024-02-15T05:09:33;3.07;;;2.57;;
46931;SDS011;32670;51.464;11.964;2024-02-15T05:11:59;3.03;;;2.30;;
46931;SDS011;32670;51.464;11.964;2024-02-15T05:14:27;3.77;;;2.63;;
46931;SDS011;32670;51.464;11.964;2024-02-15T05:16:53;3.40;;;2.73;;
46931;SDS011;32670;51.464;11.964;2024-02-15T05:19:18;7.57;;;2.70;;
46931;SDS011;32670;51.464;11.964;2024-02-15T05:21:45;3.17;;;2.30;;
46931;SDS011;32670;51.464;11.964;2024-02-15T05:24:14;4.80;;;2.70;;
46931;SDS011;32670;51.464;11.964;2024-02-15T05:26:40;4.93;;;2.50;;
46931;SDS011;32670;51.464;11.964;2024-02-15T05:29:11;6.00;;;2.90;;
46931;SDS011;32670;51.464;11.964;2024-02-15T05:31:37;5.00;;;2.63;;
46931;SDS011;32670;51.464;11.964;2024-02-15T05:34:04;5.00;;;2.70;;
46931;SDS011;32670;51.464;11.964;2024-02-15T05:36:33;3.00;;;2.37;;
46931;SDS011;32670;51.464;11.964;2024-02-15T05:38:58;4.10;;;2.40;;
46931;SDS011;32670;51.464;11.964;2024-02-15T05:41:24;2.73;;;2.43;;
46931;SDS011;32670;51.464;11.964;2024-02-15T05:43:50;4.50;;;2.60;;
46931;SDS011;32670;51.464;11.964;2024-02-15T05:46:18;2.77;;;2.57;;
46931;SDS011;32670;51.464;11.964;2024-02-15T05:48:46;2.93;;;2.40;;
46931;SDS011;32670;51.464;11.964;2024-02-15T05:51:11;6.20;;;2.40;;
46931;SDS011;32670;51.464;11.964;2024-02-15T05:53:37;4.20;;;2.40;;
46931;SDS011;32670;51.464;11.964;2024-02-15T05:56:03;3.43;;;2.60;;
46931;SDS011;32670;51.464;11.964;2024-02-15T05:58:32;3.37;;;2.50;;
46931;SDS011;32670;51.464;11.964;2024-02-15T06:00:58;2.77;;;2.53;;
46931;SDS011;32670;51.464;11.964;2024-02-15T06:03:29;2.70;;;2.50;;
46931;SDS011;32670;51.464;11.964;2024-02-15T06:05:56;3.77;;;2.47;;
46931;SDS011;32670;51.464;11.964;2024-02-15T06:08:23;4.17;;;2.47;;
46931;SDS011;32670;51.464;11.964;2024-02-15T06:10:51;3.33;;;2.40;;
46931;SDS011;32670;51.464;11.964;2024-02-15T06:13:18;3.97;;;2.40;;
46931;SDS011;32670;51.464;11.964;2024-02-15T06:15:43;4.30;;;2.60;;
46931;SDS011;32670;51.464;11.964;2024-02-15T06:18:12;2.97;;;2.67;;
46931;SDS011;32670;51.464;11.964;2024-02-15T06:20:39;5.20;;;2.90;;
46931;SDS011;32670;51.464;11.964;2024-02-15T06:23:05;5.13;;;3.10;;
46931;SDS011;32670;51.464;11.964;2024-02-15T06:25:32;7.10;;;3.13;;
46931;SDS011;32670;51.464;11.964;2024-02-15T06:27:58;3.90;;;2.87;;
46931;SDS011;32670;51.464;11.964;2024-02-15T06:30:27;8.00;;;2.93;;
46931;SDS011;32670;51.464;11.964;2024-02-15T06:33:14;4.53;;;2.83;;
46931;SDS011;32670;51.464;11.964;2024-02-15T06:35:58;3.73;;;3.07;;
46931;SDS011;32670;51.464;11.964;2024-02-15T06:38:42;3.20;;;2.90;;
46931;SDS011;32670;51.464;11.964;2024-02-15T06:41:26;4.17;;;3.30;;
46931;SDS011;32670;51.464;11.964;2024-02-15T06:43:53;3.33;;;2.80;;
46931;SDS011;32670;51.464;11.964;2024-02-15T06:46:18;3.63;;;2.90;;
46931;SDS011;32670;51.464;11.964;2024-02-15T06:48:44;3.63;;;2.80;;
46931;SDS011;32670;51.464;11.964;2024-02-15T06:51:13;6.53;;;2.73;;
46931;SDS011;32670;51.464;11.964;2024-02-15T06:53:39;3.93;;;3.07;;
46931;SDS011;32670;51.464;11.964;2024-02-15T06:56:05;4.03;;;3.00;;
46931;SDS011;32670;51.464;11.964;2024-02-15T06:58:33;9.10;;;3.27;;
46931;SDS011;32670;51.464;11.964;2024-02-15T07:00:59;4.73;;;3.20;;
46931;SDS011;32670;51.464;11.964;2024-02-15T07:03:25;5.33;;;3.00;;
46931;SDS011;32670;51.464;11.964;2024-02-15T07:05:54;8.03;;;3.40;;
46931;SDS011;32670;51.464;11.964;2024-02-15T07:08:21;7.20;;;2.67;;
46931;SDS011;32670;51.464;11.964;2024-02-15T07:10:48;5.07;;;2.40;;
46931;SDS011;32670;51.464;11.964;2024-02-15T07:13:14;4.47;;;2.60;;
46931;SDS011;32670;51.464;11.964;2024-02-15T07:15:39;3.20;;;2.03;;
46931;SDS011;32670;51.464;11.964;2024-02-15T07:18:05;3.03;;;1.90;;
46931;SDS011;32670;51.464;11.964;2024-02-15T07:20:31;3.57;;;2.40;;
46931;SDS011;32670;51.464;11.964;2024-02-15T07:23:00;2.67;;;2.10;;
46931;SDS011;32670;51.464;11.964;2024-02-15T07:25:25;2.10;;;1.70;;
46931;SDS011;32670;51.464;11.964;2024-02-15T07:27:51;3.20;;;1.90;;
46931;SDS011;32670;51.464;11.964;2024-02-15T07:30:17;2.50;;;1.80;;
46931;SDS011;32670;51.464;11.964;2024-02-15T07:32:43;3.60;;;1.70;;
46931;SDS011;32670;51.464;11.964;2024-02-15T07:35:09;2.70;;;1.70;;
46931;SDS011;32670;51.464;11.964;2024-02-15T07:37:35;1.77;;;1.40;;
46931;SDS011;32670;51.464;11.964;2024-02-15T07:40:01;3.33;;;1.40;;
46931;SDS011;32670;51.464;11.964;2024-02-15T07:42:28;2.20;;;1.70;;
46931;SDS011;32670;51.464;11.964;2024-02-15T07:44:54;2.23;;;1.30;;
46931;SDS011;32670;51.464;11.964;2024-02-15T07:47:20;2.90;;;1.40;;
46931;SDS011;32670;51.464;11.964;2024-02-15T07:49:49;1.50;;;1.40;;
46931;SDS011;32670;51.464;11.964;2024-02-15T07:52:15;2.33;;;1.50;;
46931;SDS011;32670;51.464;11.964;2024-02-15T07:54:40;2.30;;;1.50;;
46931;SDS011;32670;51.464;11.964;2024-02-15T07:57:06;1.87;;;1.43;;
46931;SDS011;32670;51.464;11.964;2024-02-15T07:59:32;1.73;;;1.47;;
46931;SDS011;32670;51.464;11.964;2024-02-15T08:01:57;5.00;;;1.50;;
46931;SDS011;32670;51.464;11.964;2024-02-15T08:04:23;6.80;;;1.77;;
46931;SDS011;32670;51.464;11.964;2024-02-15T08:06:49;9.97;;;1.80;;
46931;SDS011;32670;51.464;11.964;2024-02-15T08:09:17;4.13;;;1.63;;
46931;SDS011;32670;51.464;11.964;2024-02-15T08:11:45;4.40;;;1.63;;
46931;SDS011;32670;51.464;11.964;2024-02-15T08:14:10;3.73;;;1.50;;
46931;SDS011;32670;51.464;11.964;2024-02-15T08:16:36;2.77;;;1.10;;
46931;SDS011;32670;51.464;11.964;2024-02-15T08:19:06;1.50;;;0.90;;
46931;SDS011;32670;51.464;11.964;2024-02-15T08:21:32;2.50;;;1.20;;
46931;SDS011;32670;51.464;11.964;2024-02-15T08:24:01;4.43;;;1.23;;
46931;SDS011;32670;51.464;11.964;2024-02-15T08:26:33;7.13;;;1.40;;
46931;SDS011;32670;51.464;11.964;2024-02-15T08:29:02;2.40;;;1.23;;
46931;SDS011;32670;51.464;11.964;2024-02-15T08:31:28;2.77;;;1.27;;
46931;SDS011;32670;51.464;11.964;2024-02-15T08:33:56;2.23;;;1.17;;
46931;SDS011;32670;51.464;11.964;2024-02-15T08:36:21;5.00;;;1.10;;
46931;SDS011;32670;51.464;11.964;2024-02-15T08:38:47;1.10;;;1.00;;
46931;SDS011;32670;51.464;11.964;2024-02-15T08:41:15;3.77;;;1.20;;
46931;SDS011;32670;51.464;11.964;2024-02-15T08:43:42;3.30;;;1.20;;
46931;SDS011;32670;51.464;11.964;2024-02-15T08:46:08;3.30;;;1.10;;
46931;SDS011;32670;51.464;11.964;2024-02-15T08:48:35;1.87;;;1.07;;
46931;SDS011;32670;51.464;11.964;2024-02-15T08:51:01;1.30;;;0.87;;
46931;SDS011;32670;51.464;11.964;2024-02-15T08:53:26;2.57;;;1.17;;
46931;SDS011;32670;51.464;11.964;2024-02-15T08:55:52;1.50;;;1.10;;
46931;SDS011;32670;51.464;11.964;2024-02-15T08:58:18;1.63;;;1.27;;
46931;SDS011;32670;51.464;11.964;2024-02-15T09:00:44;1.23;;;1.10;;
46931;SDS011;32670;51.464;11.964;2024-02-15T09:03:10;1.77;;;0.90;;
46931;SDS011;32670;51.464;11.964;2024-02-15T09:05:36;2.63;;;1.10;;
46931;SDS011;32670;51.464;11.964;2024-02-15T09:08:03;1.33;;;1.20;;
46931;SDS011;32670;51.464;11.964;2024-02-15T09:10:31;2.30;;;1.10;;
46931;SDS011;32670;51.464;11.964;2024-02-15T09:12:56;1.60;;;1.03;;
46931;SDS011;32670;51.464;11.964;2024-02-15T09:15:22;2.20;;;0.90;;
46931;SDS011;32670;51.464;11.964;2024-02-15T09:17:47;1.70;;;1.00;;
46931;SDS011;32670;51.464;11.964;2024-02-15T09:20:14;3.33;;;1.20;;
46931;SDS011;32670;51.464;11.964;2024-02-15T09:22:46;1.73;;;1.10;;
46931;SDS011;32670;51.464;11.964;2024-02-15T09:25:13;1.27;;;0.90;;
46931;SDS011;32670;51.464;11.964;2024-02-15T09:27:39;2.70;;;1.00;;
46931;SDS011;32670;51.464;11.964;2024-02-15T09:30:05;1.90;;;0.90;;
46931;SDS011;32670;51.464;11.964;2024-02-15T09:32:37;1.13;;;1.00;;
46931;SDS011;32670;51.464;11.964;2024-02-15T09:35:06;0.93;;;0.83;;
46931;SDS011;32670;51.464;11.964;2024-02-15T09:37:33;1.10;;;0.90;;
46931;SDS011;32670;51.464;11.964;2024-02-15T09:40:00;2.10;;;0.97;;
46931;SDS011;32670;51.464;11.964;2024-02-15T09:42:31;1.70;;;0.80;;
46931;SDS011;32670;51.464;11.964;2024-02-15T09:44:59;1.90;;;0.97;;
46931;SDS011;32670;51.464;11.964;2024-02-15T09:47:26;1.73;;;0.90;;
46931;SDS011;32670;51.464;11.964;2024-02-15T09:49:55;2.97;;;0.80;;
46931;SDS011;32670;51.464;11.964;2024-02-15T09:52:21;2.03;;;0.90;;
46931;SDS011;32670;51.464;11.964;2024-02-15T09:54:49;1.93;;;1.00;;
46931;SDS011;32670;51.464;11.964;2024-02-15T09:57:15;0.90;;;0.90;;
46931;SDS011;32670;51.464;11.964;2024-02-15T09:59:43;1.60;;;1.07;;
46931;SDS011;32670;51.464;11.964;2024-02-15T10:02:09;0.97;;;0.80;;
46931;SDS011;32670;51.464;11.964;2024-02-15T10:04:36;4.33;;;0.90;;
46931;SDS011;32670;51.464;11.964;2024-02-15T10:07:02;1.97;;;1.10;;
46931;SDS011;32670;51.464;11.964;2024-02-15T10:09:29;1.43;;;1.03;;
46931;SDS011;32670;51.464;11.964;2024-02-15T10:11:58;2.77;;;1.10;;
46931;SDS011;32670;51.464;11.964;2024-02-15T10:14:25;1.43;;;0.90;;
46931;SDS011;32670;51.464;11.964;2024-02-15T10:16:52;1.50;;;1.10;;
46931;SDS011;32670;51.464;11.964;2024-02-15T10:19:21;1.53;;;1.10;;
46931;SDS011;32670;51.464;11.964;2024-02-15T10:21:51;2.07;;;0.97;;
46931;SDS011;32670;51.464;11.964;2024-02-15T10:24:20;1.67;;;0.90;;
46931;SDS011;32670;51.464;11.964;2024-02-15T10:26:48;1.50;;;0.90;;
46931;SDS011;32670;51.464;11.964;2024-02-15T10:29:13;0.80;;;0.80;;
46931;SDS011;32670;51.464;11.964;2024-02-15T10:31:52;1.47;;;0.97;;
46931;SDS011;32670;51.464;11.964;2024-02-15T10:34:19;1.47;;;1.03;;
46931;SDS011;32670;51.464;11.964;2024-02-15T10:36:45;2.60;;;0.90;;
46931;SDS011;32670;51.464;11.964;2024-02-15T10:39:14;0.70;;;0.70;;
46931;SDS011;32670;51.464;11.964;2024-02-15T10:41:46;0.93;;;0.83;;
46931;SDS011;32670;51.464;11.964;2024-02-15T10:44:16;0.83;;;0.83;;
46931;SDS011;32670;51.464;11.964;2024-02-15T10:46:44;1.00;;;0.80;;
46931;SDS011;32670;51.464;11.964;2024-02-15T10:49:11;0.80;;;0.80;;
46931;SDS011;32670;51.464;11.964;2024-02-15T10:51:38;2.63;;;0.87;;
46931;SDS011;32670;51.464;11.964;2024-02-15T10:54:08;1.33;;;0.90;;
46931;SDS011;32670;51.464;11.964;2024-02-15T10:56:41;1.10;;;1.00;;
46931;SDS011;32670;51.464;11.964;2024-02-15T10:59:18;1.10;;;0.90;;
46931;SDS011;32670;51.464;11.964;2024-02-15T11:01:47;0.93;;;0.70;;
46931;SDS011;32670;51.464;11.964;2024-02-15T11:04:16;2.10;;;1.03;;
46931;SDS011;32670;51.464;11.964;2024-02-15T11:06:46;2.07;;;0.83;;
46931;SDS011;32670;51.464;11.964;2024-02-15T11:09:15;1.67;;;0.80;;
46931;SDS011;32670;51.464;11.964;2024-02-15T11:11:41;1.27;;;0.80;;
46931;SDS011;32670;51.464;11.964;2024-02-15T11:14:22;1.20;;;0.90;;
46931;SDS011;32670;51.464;11.964;2024-02-15T11:16:48;2.77;;;0.90;;
46931;SDS011;32670;51.464;11.964;2024-02-15T11:19:39;1.53;;;1.00;;
46931;SDS011;32670;51.464;11.964;2024-02-15T11:22:07;2.40;;;1.00;;
46931;SDS011;32670;51.464;11.964;2024-02-15T11:24:35;1.67;;;0.80;;
46931;SDS011;32670;51.464;11.964;2024-02-15T11:27:02;0.80;;;0.80;;
46931;SDS011;32670;51.464;11.964;2024-02-15T11:35:13;1.10;;;0.80;;
46931;SDS011;32670;51.464;11.964;2024-02-15T11:40:24;0.90;;;0.90;;
46931;SDS011;32670;51.464;11.964;2024-02-15T11:42:58;1.13;;;0.83;;
46931;SDS011;32670;51.464;11.964;2024-02-15T11:45:24;0.97;;;0.80;;
46931;SDS011;32670;51.464;11.964;2024-02-15T11:47:51;1.03;;;0.90;;
46931;SDS011;32670;51.464;11.964;2024-02-15T11:50:19;1.43;;;0.90;;
46931;SDS011;32670;51.464;11.964;2024-02-15T11:52:49;1.17;;;0.90;;
46931;SDS011;32670;51.464;11.964;2024-02-15T11:55:21;1.27;;;0.90;;
46931;SDS011;32670;51.464;11.964;2024-02-15T11:58:00;2.47;;;1.10;;
46931;SDS011;32670;51.464;11.964;2024-02-15T12:00:36;1.80;;;0.90;;
46931;SDS011;32670;51.464;11.964;2024-02-15T12:03:21;1.00;;;0.90;;
46931;SDS011;32670;51.464;11.964;2024-02-15T12:06:06;1.53;;;1.00;;
46931;SDS011;32670;51.464;11.964;2024-02-15T12:08:51;1.70;;;1.00;;
46931;SDS011;32670;51.464;11.964;2024-02-15T12:11:36;1.20;;;0.90;;
46931;SDS011;32670;51.464;11.964;2024-02-15T12:14:21;1.43;;;1.20;;
46931;SDS011;32670;51.464;11.964;2024-02-15T12:17:09;1.77;;;1.00;;
46931;SDS011;32670;51.464;11.964;2024-02-15T12:19:55;1.97;;;1.03;;
46931;SDS011;32670;51.464;11.964;2024-02-15T12:22:31;1.07;;;0.90;;
46931;SDS011;32670;51.464;11.964;2024-02-15T12:24:59;1.53;;;1.00;;
46931;SDS011;32670;51.464;11.964;2024-02-15T12:27:37;1.07;;;0.83;;
46931;SDS011;32670;51.464;11.964;2024-02-15T12:30:04;1.50;;;0.97;;
46931;SDS011;32670;51.464;11.964;2024-02-15T12:32:31;1.23;;;0.83;;
46931;SDS011;32670;51.464;11.964;2024-02-15T12:38:01;1.50;;;1.10;;
46931;SDS011;32670;51.464;11.964;2024-02-15T12:40:33;1.67;;;1.10;;
46931;SDS011;32670;51.464;11.964;2024-02-15T12:43:00;3.10;;;1.10;;
46931;SDS011;32670;51.464;11.964;2024-02-15T12:45:26;2.63;;;1.13;;
46931;SDS011;32670;51.464;11.964;2024-02-15T12:47:53;1.87;;;1.40;;
46931;SDS011;32670;51.464;11.964;2024-02-15T12:50:20;2.90;;;1.50;;
46931;SDS011;32670;51.464;11.964;2024-02-15T12:52:47;2.07;;;1.20;;
46931;SDS011;32670;51.464;11.964;2024-02-15T12:55:18;4.03;;;1.70;;
46931;SDS011;32670;51.464;11.964;2024-02-15T12:57:50;4.13;;;1.40;;
46931;SDS011;32670;51.464;11.964;2024-02-15T13:00:18;4.00;;;1.20;;
46931;SDS011;32670;51.464;11.964;2024-02-15T13:02:45;2.20;;;1.37;;
46931;SDS011;32670;51.464;11.964;2024-02-15T13:05:15;4.43;;;1.50;;
46931;SDS011;32670;51.464;11.964;2024-02-15T13:07:43;2.40;;;1.33;;
46931;SDS011;32670;51.464;11.964;2024-02-15T13:10:09;2.13;;;1.30;;
46931;SDS011;32670;51.464;11.964;2024-02-15T13:12:35;4.17;;;1.37;;
46931;SDS011;32670;51.464;11.964;2024-02-15T13:15:03;1.30;;;1.17;;
46931;SDS011;32670;51.464;11.964;2024-02-15T13:17:29;2.83;;;1.67;;
46931;SDS011;32670;51.464;11.964;2024-02-15T13:19:55;2.60;;;1.40;;
46931;SDS011;32670;51.464;11.964;2024-02-15T13:22:28;3.00;;;1.30;;
46931;SDS011;32670;51.464;11.964;2024-02-15T13:24:54;2.37;;;1.40;;
46931;SDS011;32670;51.464;11.964;2024-02-15T13:27:21;2.23;;;1.40;;
46931;SDS011;32670;51.464;11.964;2024-02-15T13:29:48;1.73;;;0.93;;
46931;SDS011;32670;51.464;11.964;2024-02-15T13:32:14;2.30;;;1.30;;
46931;SDS011;32670;51.464;11.964;2024-02-15T13:34:41;1.63;;;1.17;;
46931;SDS011;32670;51.464;11.964;2024-02-15T13:37:07;2.30;;;1.30;;
46931;SDS011;32670;51.464;11.964;2024-02-15T13:39:33;3.03;;;1.47;;
46931;SDS011;32670;51.464;11.964;2024-02-15T13:41:59;2.73;;;1.40;;
46931;SDS011;32670;51.464;11.964;2024-02-15T13:44:26;1.53;;;1.20;;
46931;SDS011;32670;51.464;11.964;2024-02-15T13:46:51;2.37;;;1.40;;
46931;SDS011;32670;51.464;11.964;2024-02-15T13:49:20;1.57;;;1.20;;
46931;SDS011;32670;51.464;11.964;2024-02-15T13:51:46;1.40;;;1.10;;
46931;SDS011;32670;51.464;11.964;2024-02-15T13:54:11;1.50;;;1.10;;
46931;SDS011;32670;51.464;11.964;2024-02-15T13:56:37;1.63;;;1.13;;
46931;SDS011;32670;51.464;11.964;2024-02-15T13:59:04;2.03;;;1.37;;
46931;SDS011;32670;51.464;11.964;2024-02-15T14:01:30;1.93;;;1.30;;
46931;SDS011;32670;51.464;11.964;2024-02-15T14:03:56;2.07;;;1.20;;
46931;SDS011;32670;51.464;11.964;2024-02-15T14:06:21;1.60;;;1.27;;
46931;SDS011;32670;51.464;11.964;2024-02-15T14:08:47;2.30;;;1.27;;
46931;SDS011;32670;51.464;11.964;2024-02-15T14:11:12;1.37;;;1.10;;
46931;SDS011;32670;51.464;11.964;2024-02-15T14:13:38;1.47;;;1.10;;
46931;SDS011;32670;51.464;11.964;2024-02-15T14:16:04;1.43;;;1.13;;
46931;SDS011;32670;51.464;11.964;2024-02-15T14:18:30;2.53;;;1.10;;
46931;SDS011;32670;51.464;11.964;2024-02-15T14:20:56;1.20;;;1.10;;
46931;SDS011;32670;51.464;11.964;2024-02-15T14:23:21;2.03;;;1.10;;
46931;SDS011;32670;51.464;11.964;2024-02-15T14:25:47;1.50;;;1.10;;
46931;SDS011;32670;51.464;11.964;2024-02-15T14:28:14;1.53;;;1.23;;
46931;SDS011;32670;51.464;11.964;2024-02-15T14:30:40;2.03;;;1.30;;
46931;SDS011;32670;51.464;11.964;2024-02-15T14:33:24;3.13;;;1.37;;
46931;SDS011;32670;51.464;11.964;2024-02-15T14:35:51;1.50;;;1.07;;
46931;SDS011;32670;51.464;11.964;2024-02-15T14:38:18;1.57;;;1.20;;
46931;SDS011;32670;51.464;11.964;2024-02-15T14:40:47;1.03;;;0.93;;
46931;SDS011;32670;51.464;11.964;2024-02-15T14:43:19;1.00;;;0.90;;
46931;SDS011;32670;51.464;11.964;2024-02-15T14:45:46;1.60;;;1.13;;
46931;SDS011;32670;51.464;11.964;2024-02-15T14:48:12;1.30;;;1.07;;